Sacramento, California
Traffic Map
Current Weather Conditions
Sacramento, California
Overcast
Overcast
71°
Feels Like: 71°
Wind Chill: 71° Ceiling: 6500
Heat Index: 71° Visibility: 10mi
Dew Point: 49° Wind: 10mph
Humidity: 45% Direction: 220° (SW)
Pressure: 29.92in Gusts: 25mph
Raw Report DataKSAC 210053Z AUTO 22009G22KT 10SM OVC065 22/09 A2992 RMK AO2 SLP131 T02170094 TSNO
Traffic Incident Summary
Active as of:
Severity:
Category:
InformationThere was an issue retrieving the traffic information for this location. Please try a different location or try again shortly.
Advertisements
Track Severe Weather on mobile